Time;durP1;ratioP1;P1;durP2;ratioP2;P2;SDS_P1;SDS_P2;PMS_P1;PMS_P2;Temp;Humidity;BMP_temperature;BMP_pressure;BME280_temperature;BME280_humidity;BME280_pressure;Samples;Min_cycle;Max_cycle;Signal;HPM_P1;HPM_P2
2023/09/20 00:01:52;;;;;;;0.00;0.00;;;;;;;17.80;86.20;95480.13;4323166;32;20193;-65
2023/09/20 00:04:18;;;;;;;0.63;0.40;;;;;;;17.93;85.02;95473.63;4342789;32;20204;-65
2023/09/20 00:06:45;;;;;;;0.17;0.17;;;;;;;17.99;84.97;95468.84;4356794;32;20303;-65
2023/09/20 00:09:17;;;;;;;1.57;0.47;;;;;;;17.96;85.62;95472.19;4351547;32;20200;-65
2023/09/20 00:11:44;;;;;;;0.20;0.20;;;;;;;18.01;85.22;95470.06;4331162;32;20192;-65
2023/09/20 00:14:11;;;;;;;0.20;0.20;;;;;;;17.93;85.52;95472.84;4360255;32;20239;-64
2023/09/20 00:16:39;;;;;;;3.17;0.53;;;;;;;17.93;85.24;95472.84;4347015;32;20217;-65
2023/09/20 00:19:05;;;;;;;0.20;0.20;;;;;;;17.80;86.29;95470.19;4360643;32;20253;-64
2023/09/20 00:21:32;;;;;;;0.60;0.60;;;;;;;17.98;85.92;95472.63;4338926;32;20319;-64
2023/09/20 00:23:58;;;;;;;1.07;0.57;;;;;;;17.89;86.22;95467.38;4360149;32;20226;-65
2023/09/20 00:26:25;;;;;;;0.20;0.20;;;;;;;17.87;86.31;95462.34;4372097;32;20197;-64
2023/09/20 00:28:51;;;;;;;0.30;0.30;;;;;;;17.94;85.47;95464.47;4358551;32;20229;-64
2023/09/20 00:31:17;;;;;;;0.13;0.13;;;;;;;17.87;86.22;95462.34;4359447;32;20243;-64
2023/09/20 00:33:44;;;;;;;0.67;0.67;;;;;;;17.98;86.21;95462.69;4330882;32;20201;-64
2023/09/20 00:36:16;;;;;;;0.43;0.43;;;;;;;18.01;85.55;95466.59;4358004;32;20200;-64
2023/09/20 00:38:45;;;;;;;1.10;0.50;;;;;;;17.94;85.71;95461.00;4327891;32;20201;-65
2023/09/20 00:41:11;;;;;;;0.20;0.20;;;;;;;17.86;84.72;95460.03;4326272;32;20238;-64
2023/09/20 00:43:37;;;;;;;0.40;0.40;;;;;;;17.85;86.46;95458.44;4352160;32;20332;-65
2023/09/20 00:46:04;;;;;;;0.40;0.40;;;;;;;17.72;87.26;95460.34;4354752;32;20207;-65
2023/09/20 00:48:31;;;;;;;0.50;0.50;;;;;;;17.83;86.31;95453.41;4375941;32;20197;-65
2023/09/20 00:50:57;;;;;;;0.10;0.10;;;;;;;17.73;86.90;95453.06;4354404;32;20220;-65
2023/09/20 00:53:23;;;;;;;0.40;0.40;;;;;;;17.75;85.95;95458.87;4365437;32;20193;-64
2023/09/20 00:55:49;;;;;;;0.30;0.17;;;;;;;17.80;87.00;95453.28;4348894;32;20249;-64
2023/09/20 00:58:21;;;;;;;0.10;0.10;;;;;;;17.81;86.63;95457.56;4357128;32;20197;-65
2023/09/20 01:00:54;;;;;;;0.40;0.40;;;;;;;17.78;86.68;95460.91;4367855;32;20185;-64
2023/09/20 01:03:19;;;;;;;4.23;0.37;;;;;;;17.75;86.67;95454.28;4376511;32;20250;-64
2023/09/20 01:05:49;;;;;;;0.20;0.20;;;;;;;17.63;87.53;95459.63;4378664;32;20201;-65
2023/09/20 01:08:17;;;;;;;0.10;0.10;;;;;;;17.54;86.50;95461.62;4367830;32;20193;-65
2023/09/20 01:10:45;;;;;;;0.40;0.40;;;;;;;17.61;87.02;95456.50;4362084;32;20228;-64
2023/09/20 01:13:15;;;;;;;0.20;0.20;;;;;;;17.72;87.47;95452.28;4376740;32;20189;-65
2023/09/20 01:15:44;;;;;;;0.10;0.10;;;;;;;17.64;87.24;95460.44;4359421;32;20206;-65
2023/09/20 01:18:10;;;;;;;0.40;0.40;;;;;;;17.62;87.59;95455.38;4356043;32;20243;-65
2023/09/20 01:20:39;;;;;;;0.20;0.20;;;;;;;17.57;87.97;95450.25;4357283;32;20275;-65
2023/09/20 01:23:06;;;;;;;0.20;0.20;;;;;;;17.59;87.99;95458.72;4364388;32;20263;-65
2023/09/20 01:25:36;;;;;;;0.43;0.43;;;;;;;17.64;87.93;95463.09;4333944;32;20272;-64
2023/09/20 01:28:04;;;;;;;0.20;0.20;;;;;;;17.51;88.06;95459.59;4330362;32;20208;-65
2023/09/20 01:30:33;;;;;;;0.30;0.30;;;;;;;17.54;88.07;95453.59;4352705;32;20249;-64
2023/09/20 01:33:09;;;;;;;0.43;0.30;;;;;;;17.55;87.87;95455.16;4367624;32;20244;-65
2023/09/20 01:35:37;;;;;;;0.73;0.27;;;;;;;17.61;89.18;95467.25;4335248;32;20200;-64
2023/09/20 01:38:07;;;;;;;0.10;0.10;;;;;;;17.39;88.23;95465.75;4365389;32;20227;-65
2023/09/20 01:40:34;;;;;;;0.20;0.20;;;;;;;17.65;87.70;95468.19;4366296;32;20215;-65
2023/09/20 01:43:00;;;;;;;0.40;0.40;;;;;;;17.71;87.79;95471.41;4347900;32;20251;-65
2023/09/20 01:45:26;;;;;;;0.27;0.23;;;;;;;17.72;87.34;95468.38;4359654;32;20259;-64
2023/09/20 01:47:55;;;;;;;0.10;0.10;;;;;;;17.73;87.91;95466.47;4352643;32;20208;-64
2023/09/20 01:50:27;;;;;;;0.00;0.00;;;;;;;17.72;87.18;95465.69;4357868;32;20230;-65
2023/09/20 01:52:54;;;;;;;0.20;0.20;;;;;;;17.63;87.51;95469.59;4352536;32;20196;-65
2023/09/20 01:55:23;;;;;;;0.50;0.50;;;;;;;17.66;87.29;95463.59;4343315;32;20228;-64
2023/09/20 01:57:52;;;;;;;0.47;0.47;;;;;;;17.22;87.64;95460.59;4364798;32;20204;-64
2023/09/20 02:00:22;;;;;;;0.30;0.30;;;;;;;17.34;88.58;95460.59;4353318;32;20236;-64
2023/09/20 02:02:57;;;;;;;0.07;0.07;;;;;;;17.20;88.57;95462.81;4356217;32;20184;-64
2023/09/20 02:05:25;;;;;;;1.60;0.43;;;;;;;17.39;89.17;95459.59;4359400;32;20245;-65
2023/09/20 02:07:54;;;;;;;0.40;0.40;;;;;;;17.44;88.57;95454.81;4341642;32;20189;-64
2023/09/20 02:10:20;;;;;;;0.10;0.10;;;;;;;17.55;88.44;95449.78;4328062;32;20244;-64
2023/09/20 02:12:48;;;;;;;0.10;0.10;;;;;;;17.59;88.45;95453.38;4372262;32;20188;-64
2023/09/20 02:15:14;;;;;;;0.50;0.50;;;;;;;17.63;88.33;95443.53;4342913;32;20229;-65
2023/09/20 02:17:44;;;;;;;0.17;0.17;;;;;;;17.60;88.10;95451.47;4343644;32;20189;-65
2023/09/20 02:20:22;;;;;;;0.20;0.20;;;;;;;17.58;88.31;95454.50;4339489;32;20185;-65
2023/09/20 02:22:55;;;;;;;0.40;0.40;;;;;;;17.40;87.49;95450.44;4337235;32;20188;-64
2023/09/20 02:25:24;;;;;;;0.10;0.10;;;;;;;17.33;89.21;95452.88;4320381;32;20189;-64
2023/09/20 02:27:54;;;;;;;0.30;0.30;;;;;;;17.49;88.56;95445.75;4320162;32;20271;-64
2023/09/20 02:30:24;;;;;;;0.20;0.20;;;;;;;17.35;88.01;95450.66;4335663;32;20240;-64
2023/09/20 02:32:55;;;;;;;0.70;0.10;;;;;;;17.41;88.62;95454.69;4330703;32;20236;-64
2023/09/20 02:35:21;;;;;;;0.47;0.33;;;;;;;17.34;87.72;95454.44;4364443;32;20239;-64
2023/09/20 02:37:49;;;;;;;0.10;0.10;;;;;;;17.11;88.20;95444.13;4360762;32;20197;-63
2023/09/20 02:40:15;;;;;;;0.50;0.37;;;;;;;17.24;88.66;95441.47;4345494;32;20201;-65
2023/09/20 02:42:48;;;;;;;0.20;0.20;;;;;;;17.19;89.14;95445.16;4368330;32;20196;-64
2023/09/20 02:45:17;;;;;;;0.37;0.37;;;;;;;17.19;89.13;95442.47;4336888;32;20205;-65
2023/09/20 02:47:43;;;;;;;0.20;0.20;;;;;;;17.42;88.41;95438.28;4356815;32;20185;-65
2023/09/20 02:50:13;;;;;;;0.47;0.40;;;;;;;17.30;88.41;95435.56;4360247;32;20189;-65
2023/09/20 02:52:40;;;;;;;0.60;0.60;;;;;;;17.31;88.50;95436.34;4352635;32;20367;-65
2023/09/20 02:55:08;;;;;;;1.80;0.73;;;;;;;17.38;88.32;95433.91;4354753;32;20215;-65
2023/09/20 02:57:38;;;;;;;0.30;0.27;;;;;;;17.33;88.13;95431.44;4358680;32;20212;-64
2023/09/20 03:00:15;;;;;;;2.63;0.30;;;;;;;17.34;88.03;95420.37;4356895;32;20193;-65
2023/09/20 03:02:43;;;;;;;0.43;0.43;;;;;;;17.18;87.28;95425.59;4354517;32;20191;-65
2023/09/20 03:05:21;;;;;;;0.47;0.47;;;;;;;17.23;88.90;95423.81;4365598;32;20189;-65
2023/09/20 03:07:50;;;;;;;0.20;0.20;;;;;;;17.20;88.98;95425.28;4358499;32;20200;-64
2023/09/20 03:10:24;;;;;;;1.80;0.50;;;;;;;17.15;87.94;95423.56;4337654;32;20197;-64
2023/09/20 03:13:05;;;;;;;0.30;0.30;;;;;;;17.04;87.82;95419.75;4332532;32;20228;-65
2023/09/20 03:15:32;;;;;;;0.10;0.10;;;;;;;17.29;88.42;95417.12;4357467;32;20249;-65
2023/09/20 03:18:03;;;;;;;0.30;0.30;;;;;;;17.28;87.87;95418.22;4358448;32;20245;-64
2023/09/20 03:20:32;;;;;;;0.10;0.10;;;;;;;17.13;87.99;95408.94;4353257;32;20185;-65
2023/09/20 03:23:03;;;;;;;0.20;0.20;;;;;;;17.09;89.49;95416.84;4369843;32;20193;-65
2023/09/20 03:25:29;;;;;;;0.20;0.20;;;;;;;17.36;88.51;95417.34;4350638;32;20185;-64
2023/09/20 03:27:55;;;;;;;0.30;0.30;;;;;;;17.31;88.11;95421.03;4340997;32;20193;-65
2023/09/20 03:30:21;;;;;;;0.83;0.47;;;;;;;17.23;87.89;95413.88;4325538;32;20209;-64
2023/09/20 03:32:50;;;;;;;0.30;0.30;;;;;;;17.27;88.16;95413.97;4342216;32;20260;-64
2023/09/20 03:35:17;;;;;;;0.30;0.30;;;;;;;17.14;87.52;95405.94;4362837;32;20189;-65
2023/09/20 03:37:44;;;;;;;0.20;0.20;;;;;;;17.26;88.24;95412.41;4362793;32;20193;-65
2023/09/20 03:40:16;;;;;;;0.20;0.20;;;;;;;17.20;88.15;95405.72;4361394;32;20194;-65
2023/09/20 03:42:42;;;;;;;0.30;0.13;;;;;;;16.98;88.06;95396.97;4363558;32;20261;-65
2023/09/20 03:45:16;;;;;;;0.40;0.40;;;;;;;16.89;89.35;95406.19;4313055;32;20227;-65
2023/09/20 03:47:48;;;;;;;0.40;0.33;;;;;;;17.00;88.65;95399.31;4360359;32;20230;-65
2023/09/20 03:50:22;;;;;;;0.17;0.17;;;;;;;17.20;88.29;95403.81;4352889;32;20201;-65
2023/09/20 03:52:49;;;;;;;0.10;0.10;;;;;;;17.17;88.49;95401.81;4358824;32;20201;-64
2023/09/20 03:55:16;;;;;;;2.43;0.30;;;;;;;17.21;87.95;95400.03;4363495;32;20197;-65
2023/09/20 03:57:42;;;;;;;0.87;0.27;;;;;;;16.96;87.16;95396.50;4339711;32;20193;-65
2023/09/20 04:00:16;;;;;;;0.23;0.23;;;;;;;17.00;88.73;95402.78;4327983;32;20211;-65
2023/09/20 04:02:42;;;;;;;0.20;0.20;;;;;;;16.86;88.25;95396.91;4316515;32;20193;-65
2023/09/20 04:05:13;;;;;;;0.00;0.00;;;;;;;17.01;88.34;95396.31;4323808;32;20277;-63
2023/09/20 04:07:40;;;;;;;0.30;0.30;;;;;;;17.03;88.94;95399.44;4349844;32;20224;-63
2023/09/20 04:10:08;;;;;;;0.10;0.10;;;;;;;16.86;88.29;95396.91;4338127;32;20273;-62
2023/09/20 04:12:36;;;;;;;0.83;0.70;;;;;;;16.99;88.71;95401.22;4334607;32;20197;-62
2023/09/20 04:15:05;;;;;;;0.50;0.40;;;;;;;17.05;86.99;95401.75;4362715;32;20193;-63
2023/09/20 04:17:32;;;;;;;0.10;0.10;;;;;;;16.97;88.72;95403.44;4335731;32;20185;-63
2023/09/20 04:20:04;;;;;;;0.30;0.30;;;;;;;16.94;87.47;95406.00;4357917;32;20242;-63
2023/09/20 04:22:36;;;;;;;0.10;0.10;;;;;;;17.10;87.95;95402.34;4348213;32;20230;-63
2023/09/20 04:25:05;;;;;;;1.40;0.60;;;;;;;17.04;87.62;95405.59;4348860;32;20203;-63
2023/09/20 04:27:32;;;;;;;0.00;0.00;;;;;;;16.95;88.22;95399.53;4360428;32;20258;-63
2023/09/20 04:29:59;;;;;;;0.50;0.50;;;;;;;17.00;89.04;95391.28;4348950;32;20257;-63
2023/09/20 04:32:24;;;;;;;0.20;0.20;;;;;;;17.15;88.24;95399.44;4303202;32;20208;-63
2023/09/20 04:34:53;;;;;;;0.47;0.47;;;;;;;17.05;87.70;95394.50;4343791;32;20271;-63
2023/09/20 04:37:23;;;;;;;0.13;0.13;;;;;;;17.12;88.03;95400.09;4342708;32;20215;-62
2023/09/20 04:39:49;;;;;;;0.20;0.20;;;;;;;17.09;87.59;95406.13;4325851;32;20193;-63
2023/09/20 04:42:15;;;;;;;0.07;0.07;;;;;;;16.95;88.21;95394.94;4326580;33;20202;-63
2023/09/20 04:44:44;;;;;;;0.30;0.30;;;;;;;16.88;88.01;95392.00;4361111;32;20234;-63
2023/09/20 04:47:11;;;;;;;0.77;0.40;;;;;;;16.98;88.58;95394.28;4323515;32;20268;-63
2023/09/20 04:49:37;;;;;;;0.70;0.70;;;;;;;16.98;87.50;95391.59;4341053;32;20326;-63
2023/09/20 04:52:04;;;;;;;0.37;0.37;;;;;;;16.90;88.90;95392.47;4347289;32;20212;-63
2023/09/20 04:54:30;;;;;;;0.73;0.73;;;;;;;16.98;88.03;95396.19;4363307;32;20306;-63
2023/09/20 04:56:55;;;;;;;0.60;0.60;;;;;;;17.11;87.86;95393.19;4341896;32;20189;-63
2023/09/20 04:59:22;;;;;;;0.43;0.43;;;;;;;17.04;88.34;95387.56;4348344;32;20228;-63
2023/09/20 05:01:49;;;;;;;0.40;0.40;;;;;;;17.10;88.22;95385.47;4362151;32;20223;-62
2023/09/20 05:04:15;;;;;;;0.20;0.20;;;;;;;16.89;87.10;95390.13;4363787;32;20199;-63
2023/09/20 05:06:41;;;;;;;0.10;0.10;;;;;;;16.92;88.92;95392.91;4362139;32;20203;-63
2023/09/20 05:09:08;;;;;;;0.37;0.30;;;;;;;16.89;87.53;95393.56;4360990;32;20257;-63
2023/09/20 05:11:34;;;;;;;0.70;0.70;;;;;;;16.92;88.32;95395.59;4348538;32;20218;-63
2023/09/20 05:13:59;;;;;;;0.50;0.50;;;;;;;16.88;87.54;95402.72;4367508;32;20261;-63
2023/09/20 05:16:24;;;;;;;0.63;0.43;;;;;;;16.81;88.72;95394.47;4364478;32;20216;-64
2023/09/20 05:18:50;;;;;;;0.30;0.30;;;;;;;16.84;88.21;95391.88;4370109;32;20297;-63
2023/09/20 05:21:16;;;;;;;0.67;0.33;;;;;;;16.93;88.56;95399.84;4372968;32;20198;-63
2023/09/20 05:23:42;;;;;;;0.63;0.30;;;;;;;17.04;88.21;95400.22;4342508;32;20189;-63
2023/09/20 05:26:07;;;;;;;0.53;0.53;;;;;;;17.05;88.36;95401.75;4364900;32;20181;-63
2023/09/20 05:28:33;;;;;;;0.33;0.33;;;;;;;17.04;87.48;95406.34;4376820;32;20203;-63
2023/09/20 05:31:00;;;;;;;0.40;0.40;;;;;;;16.91;85.17;95404.75;4376990;32;20219;-64
2023/09/20 05:33:25;;;;;;;0.37;0.37;;;;;;;16.59;84.22;95414.34;4365490;32;20207;-63
2023/09/20 05:35:52;;;;;;;0.40;0.40;;;;;;;16.51;87.07;95409.84;4369004;32;20261;-63
2023/09/20 05:38:18;;;;;;;1.50;0.47;;;;;;;16.60;87.81;95407.09;4368766;32;20193;-63
2023/09/20 05:40:43;;;;;;;0.30;0.30;;;;;;;16.68;88.66;95419.63;4364890;32;20190;-64
2023/09/20 05:43:09;;;;;;;0.30;0.30;;;;;;;16.76;89.42;95403.50;4366463;32;20188;-64
2023/09/20 05:45:35;;;;;;;0.50;0.50;;;;;;;16.72;87.10;95409.84;4376287;32;20197;-64
2023/09/20 05:48:01;;;;;;;0.17;0.17;;;;;;;16.73;88.90;95401.47;4375943;32;20259;-64
2023/09/20 05:50:35;;;;;;;0.20;0.20;;;;;;;16.70;85.57;95402.12;4384563;32;20238;-63
2023/09/20 05:53:11;;;;;;;0.10;0.10;;;;;;;16.57;84.37;95407.75;4375487;32;20195;-63
2023/09/20 05:55:38;;;;;;;0.43;0.43;;;;;;;16.39;84.91;95405.22;4373367;32;20247;-64
2023/09/20 05:58:04;;;;;;;0.43;0.43;;;;;;;16.41;85.42;95405.69;4389170;32;20275;-64
2023/09/20 06:00:30;;;;;;;3.47;0.67;;;;;;;16.59;88.36;95417.03;4386179;32;20224;-64
2023/09/20 06:02:59;;;;;;;0.73;0.30;;;;;;;16.67;89.46;95418.84;4373131;32;20213;-63
2023/09/20 06:05:25;;;;;;;1.53;0.87;;;;;;;16.71;88.97;95414.41;4382860;32;20207;-64
2023/09/20 06:07:51;;;;;;;0.83;0.47;;;;;;;16.79;88.96;95405.50;4380576;32;20262;-63
2023/09/20 06:10:18;;;;;;;1.50;0.67;;;;;;;16.73;87.17;95411.41;4367409;32;20201;-63
2023/09/20 06:12:47;;;;;;;0.30;0.30;;;;;;;16.93;87.56;95404.44;4364198;32;20193;-64
2023/09/20 06:15:15;;;;;;;0.60;0.60;;;;;;;16.96;86.54;95409.12;4352134;32;20196;-64
2023/09/20 06:17:47;;;;;;;0.10;0.10;;;;;;;17.04;87.48;95406.34;4376192;32;20193;-64
2023/09/20 06:20:16;;;;;;;0.27;0.27;;;;;;;17.00;86.93;95410.81;4371835;32;20194;-64
2023/09/20 06:22:42;;;;;;;0.50;0.50;;;;;;;17.08;86.88;95401.88;4372121;32;20234;-64
2023/09/20 06:25:08;;;;;;;0.20;0.20;;;;;;;17.15;86.92;95402.12;4375737;32;20193;-64
2023/09/20 06:27:34;;;;;;;0.37;0.37;;;;;;;17.25;86.91;95414.31;4362263;32;20223;-64
2023/09/20 06:30:24;;;;;;;6.80;2.37;;;;;;;17.29;86.49;95422.47;4361786;32;20243;-63
2023/09/20 06:32:48;;;;;;;0.87;0.80;;;;;;;16.99;87.58;95419.97;4370486;32;20317;-63
2023/09/20 06:35:22;;;;;;;0.73;0.73;;;;;;;16.70;88.37;95401.34;4364438;32;20289;-64
2023/09/20 06:37:48;;;;;;;3.20;1.13;;;;;;;17.05;87.67;95402.53;4381347;32;20234;-63
2023/09/20 06:40:22;;;;;;;1.33;1.13;;;;;;;17.21;88.00;95400.03;4385979;32;20248;-63
2023/09/20 06:42:51;;;;;;;0.80;0.80;;;;;;;17.34;87.21;95395.44;4385006;32;20195;-62
2023/09/20 06:45:20;;;;;;;0.77;0.73;;;;;;;17.33;86.00;95408.06;4383746;32;20212;-61
2023/09/20 06:47:45;;;;;;;0.77;0.77;;;;;;;17.40;86.00;95407.53;4382927;32;20216;-63
2023/09/20 06:50:14;;;;;;;0.33;0.33;;;;;;;17.35;86.49;95413.88;4375240;32;20208;-63
2023/09/20 06:52:42;;;;;;;1.13;1.03;;;;;;;17.42;86.16;95399.94;4371170;32;20216;-63
2023/09/20 06:55:13;;;;;;;0.30;0.30;;;;;;;17.51;86.35;95396.00;4376736;32;20193;-64
2023/09/20 06:57:38;;;;;;;0.40;0.40;;;;;;;17.48;86.24;95398.56;4380892;32;20193;-65
2023/09/20 07:00:05;;;;;;;0.50;0.50;;;;;;;17.46;85.07;95390.88;4380683;32;20226;-63
2023/09/20 07:02:30;;;;;;;5.50;0.93;;;;;;;17.48;86.08;95393.22;4387563;32;20250;-65
2023/09/20 07:04:56;;;;;;;0.53;0.53;;;;;;;17.57;86.70;95391.22;4367356;32;20192;-63
2023/09/20 07:07:22;;;;;;;0.70;0.43;;;;;;;17.63;85.31;95397.94;4382203;32;20189;-63
2023/09/20 07:09:47;;;;;;;0.87;0.67;;;;;;;17.58;85.01;95387.41;4377802;32;20204;-64
2023/09/20 07:12:13;;;;;;;0.40;0.40;;;;;;;17.80;84.54;95384.31;4379802;32;20203;-64
2023/09/20 07:14:38;;;;;;;0.30;0.30;;;;;;;17.87;84.06;95379.12;4368056;32;20205;-63
2023/09/20 07:17:04;;;;;;;0.73;0.73;;;;;;;17.96;82.61;95381.69;4379325;32;20181;-63
2023/09/20 07:19:30;;;;;;;4.27;0.80;;;;;;;17.99;83.38;95374.87;4367638;32;20211;-63
2023/09/20 07:21:56;;;;;;;0.40;0.40;;;;;;;18.06;83.28;95364.34;4367239;32;20213;-63
2023/09/20 07:24:24;;;;;;;0.30;0.30;;;;;;;18.09;83.69;95366.34;4372624;32;20185;-63
2023/09/20 07:26:51;;;;;;;0.20;0.20;;;;;;;18.11;82.48;95364.88;4365110;32;20215;-63
2023/09/20 07:29:17;;;;;;;0.50;0.50;;;;;;;18.16;84.03;95366.56;4378657;32;20240;-63
2023/09/20 07:31:43;;;;;;;2.10;2.00;;;;;;;18.20;83.52;95370.12;4379718;32;20231;-63
2023/09/20 07:34:13;;;;;;;1.07;0.97;;;;;;;18.32;82.84;95370.06;4364854;32;20192;-65
2023/09/20 07:36:40;;;;;;;0.33;0.33;;;;;;;18.37;82.90;95364.47;4378918;32;20185;-65
2023/09/20 07:39:12;;;;;;;1.07;1.07;;;;;;;18.37;83.50;95369.84;4378850;32;20219;-65
2023/09/20 07:41:38;;;;;;;6.10;5.27;;;;;;;18.41;82.75;95364.56;4377834;32;20173;-64
2023/09/20 07:44:05;;;;;;;3.20;3.00;;;;;;;18.41;82.66;95367.25;4378193;32;20200;-63
2023/09/20 07:46:34;;;;;;;1.47;1.33;;;;;;;18.49;83.14;95367.13;4378007;32;20228;-63
2023/09/20 07:49:09;;;;;;;1.43;1.33;;;;;;;18.51;80.83;95372.13;4378528;32;20274;-63
2023/09/20 07:51:36;;;;;;;2.20;0.93;;;;;;;18.60;81.62;95372.03;4379005;32;20222;-63
2023/09/20 07:54:03;;;;;;;1.00;1.00;;;;;;;18.61;82.39;95360.94;4379097;32;20212;-62
2023/09/20 07:56:28;;;;;;;17.20;11.20;;;;;;;18.63;82.01;95356.00;4365267;32;20204;-62
2023/09/20 07:58:54;;;;;;;7.53;6.90;;;;;;;18.64;80.86;95356.78;4365270;32;20205;-63
2023/09/20 08:01:20;;;;;;;2.30;1.53;;;;;;;18.67;79.87;95353.41;4364877;32;20189;-62
2023/09/20 08:03:52;;;;;;;1.17;1.17;;;;;;;18.71;77.32;95357.72;4380665;32;20207;-64
2023/09/20 08:06:23;;;;;;;0.80;0.80;;;;;;;18.92;79.39;95345.97;4377717;32;20197;-62
2023/09/20 08:08:48;;;;;;;2.47;2.30;;;;;;;18.89;77.78;95342.09;4378376;32;20184;-61
2023/09/20 08:11:13;;;;;;;1.20;0.83;;;;;;;18.95;75.53;95351.44;4366158;32;20199;-62
2023/09/20 08:13:39;;;;;;;1.03;1.03;;;;;;;18.91;72.93;95347.12;4378292;32;20211;-65
2023/09/20 08:16:09;;;;;;;1.20;1.10;;;;;;;18.85;72.71;95339.31;4367631;32;20201;-63
2023/09/20 08:21:20;;;;;;;15.63;11.10;;;;;;;18.92;73.01;95348.66;4372784;32;20255;-62
2023/09/20 09:02:18;;;;;;;0.70;0.50;;;;;;;19.51;72.55;95321.72;4375947;32;20206;-62
2023/09/20 09:04:45;;;;;;;0.70;0.50;;;;;;;19.50;73.15;95312.06;4366022;32;20197;-64
2023/09/20 09:07:11;;;;;;;0.20;0.20;;;;;;;19.61;72.69;95317.69;4377929;32;20197;-63
2023/09/20 09:09:38;;;;;;;0.10;0.10;;;;;;;19.58;72.14;95318.38;4353765;32;20285;-63
2023/09/20 09:12:04;;;;;;;0.13;0.13;;;;;;;19.59;73.05;95312.66;4378166;32;20230;-63
2023/09/20 09:14:30;;;;;;;0.70;0.70;;;;;;;19.53;73.33;95316.75;4378391;32;20196;-63
2023/09/20 09:17:03;;;;;;;0.70;0.70;;;;;;;19.64;72.82;95315.06;4377593;32;20193;-63
2023/09/20 09:19:28;;;;;;;0.27;0.27;;;;;;;19.65;73.17;95311.25;4377140;32;20204;-63
2023/09/20 09:21:56;;;;;;;0.30;0.30;;;;;;;19.80;72.22;95318.50;4376817;32;20242;-62
2023/09/20 09:24:21;;;;;;;4.63;0.40;;;;;;;19.83;72.23;95312.41;4377583;32;20251;-63
2023/09/20 09:26:46;;;;;;;0.43;0.43;;;;;;;19.86;72.13;95308.25;4363934;32;20188;-61
2023/09/20 09:29:19;;;;;;;0.10;0.10;;;;;;;19.81;73.25;95303.91;4379825;32;20188;-63
2023/09/20 09:31:50;;;;;;;1.47;0.50;;;;;;;19.90;72.14;95299.13;4377775;32;20240;-62
2023/09/20 09:34:18;;;;;;;0.07;0.07;;;;;;;20.01;70.73;95299.31;4378035;32;20252;-63
2023/09/20 09:36:44;;;;;;;0.40;0.40;;;;;;;20.05;70.53;95300.19;4377699;32;20207;-64
2023/09/20 09:39:10;;;;;;;0.13;0.13;;;;;;;20.11;70.40;95306.06;4376141;32;20240;-63
2023/09/20 09:41:42;;;;;;;0.10;0.10;;;;;;;20.08;70.70;95298.69;4376027;32;20204;-63
2023/09/20 09:44:08;;;;;;;2.07;0.47;;;;;;;20.07;71.27;95297.13;4376013;32;20230;-63
2023/09/20 09:46:42;;;;;;;2.57;0.57;;;;;;;20.13;70.20;95287.66;4363653;32;20201;-63
2023/09/20 09:49:11;;;;;;;0.30;0.30;;;;;;;20.19;69.35;95289.69;4375884;32;20281;-62
2023/09/20 09:51:42;;;;;;;0.00;0.00;;;;;;;20.14;70.20;95281.13;4377491;32;20271;-63
2023/09/20 09:54:09;;;;;;;0.10;0.10;;;;;;;20.11;70.30;95282.59;4376364;32;20189;-63
2023/09/20 09:56:35;;;;;;;0.50;0.50;;;;;;;20.24;69.59;95286.72;4367859;32;20210;-63
2023/09/20 09:59:00;;;;;;;0.77;0.37;;;;;;;20.31;68.99;95279.91;4364828;32;20236;-62
2023/09/20 10:01:28;;;;;;;0.33;0.33;;;;;;;20.34;68.86;95279.97;4374798;32;20207;-63
2023/09/20 10:03:55;;;;;;;0.20;0.20;;;;;;;20.53;67.75;95274.59;4376693;32;20205;-62
2023/09/20 10:06:25;;;;;;;0.20;0.20;;;;;;;20.59;67.57;95275.06;4376972;32;20216;-63
2023/09/20 10:08:54;;;;;;;0.77;0.77;;;;;;;20.53;67.42;95273.81;4375712;32;20269;-63
2023/09/20 10:11:24;;;;;;;0.10;0.10;;;;;;;20.63;66.58;95275.91;4375272;32;20203;-64
2023/09/20 10:13:51;;;;;;;0.07;0.07;;;;;;;20.62;66.91;95268.94;4365798;32;20212;-63
2023/09/20 10:16:18;;;;;;;0.27;0.27;;;;;;;20.62;67.44;95268.16;4359111;32;20236;-63
2023/09/20 10:18:53;;;;;;;0.17;0.17;;;;;;;20.71;66.14;95263.34;4357302;32;20224;-63
2023/09/20 10:21:24;;;;;;;0.00;0.00;;;;;;;20.67;66.39;95257.88;4339293;32;20234;-63
2023/09/20 10:24:02;;;;;;;0.20;0.20;;;;;;;20.63;67.39;95257.03;4356491;32;20266;-63
2023/09/20 10:26:33;;;;;;;0.40;0.40;;;;;;;20.64;67.72;95250.50;4354566;32;20244;-64
2023/09/20 10:29:28;;;;;;;0.40;0.40;;;;;;;20.57;68.22;95251.19;4354111;32;20212;-64
2023/09/20 10:32:13;;;;;;;0.57;0.47;;;;;;;20.64;67.06;95250.50;4344174;32;20259;-63
2023/09/20 10:34:39;;;;;;;0.20;0.20;;;;;;;20.61;66.96;95242.34;4345762;32;20225;-64
2023/09/20 10:37:08;;;;;;;0.03;0.03;;;;;;;20.63;66.56;95242.75;4341919;32;20300;-64
2023/09/20 10:39:34;;;;;;;0.30;0.30;;;;;;;20.71;64.40;95239.84;4352215;32;20303;-64
2023/09/20 10:42:09;;;;;;;0.33;0.33;;;;;;;20.78;66.02;95234.59;4352617;32;20212;-64
2023/09/20 10:44:38;;;;;;;0.10;0.10;;;;;;;21.04;63.47;95231.13;4346101;32;20232;-64
2023/09/20 10:47:17;;;;;;;0.17;0.17;;;;;;;21.01;64.12;95225.66;4356063;32;20252;-64
2023/09/20 10:49:47;;;;;;;0.77;0.77;;;;;;;20.95;64.17;95217.13;4359569;32;20228;-64
2023/09/20 10:52:14;;;;;;;0.20;0.20;;;;;;;20.99;63.69;95227.97;4359429;32;20228;-64
2023/09/20 10:54:40;;;;;;;0.00;0.00;;;;;;;20.97;63.88;95214.84;4360239;32;20220;-64
2023/09/20 10:57:10;;;;;;;0.20;0.20;;;;;;;20.92;63.22;95224.00;4356545;32;20193;-64
2023/09/20 10:59:37;;;;;;;0.30;0.30;;;;;;;20.96;63.84;95218.69;4366079;32;20262;-64
2023/09/20 11:02:12;;;;;;;0.20;0.20;;;;;;;20.99;62.16;95204.44;4375263;32;20193;-63
2023/09/20 11:04:38;;;;;;;0.37;0.37;;;;;;;20.95;63.96;95200.94;4372995;32;20228;-64
2023/09/20 11:07:05;;;;;;;0.10;0.00;;;;;;;20.98;63.81;95194.81;4368033;32;20226;-64
2023/09/20 11:09:31;;;;;;;0.30;0.30;;;;;;;21.08;62.60;95199.59;4376351;32;20267;-64
2023/09/20 11:12:06;;;;;;;0.10;0.10;;;;;;;21.06;63.07;95193.00;4356107;32;20193;-64
2023/09/20 11:14:33;;;;;;;2.00;0.63;;;;;;;21.04;65.20;95182.56;4370439;32;20224;-64
2023/09/20 11:16:59;;;;;;;0.53;0.53;;;;;;;21.10;62.61;95181.12;4371816;32;20241;-63
2023/09/20 11:19:26;;;;;;;0.20;0.20;;;;;;;21.09;63.77;95179.56;4370584;32;20215;-64
2023/09/20 11:21:52;;;;;;;2.93;2.73;;;;;;;21.06;63.31;95187.59;4375189;32;20242;-64
2023/09/20 11:24:18;;;;;;;1.57;1.23;;;;;;;21.03;65.24;95186.41;4369203;32;20211;-63
2023/09/20 11:26:47;;;;;;;2.23;0.70;;;;;;;20.99;65.65;95174.75;4377408;32;20203;-63
2023/09/20 11:29:15;;;;;;;0.17;0.17;;;;;;;21.06;65.89;95177.59;4376102;32;20207;-63
2023/09/20 11:31:44;;;;;;;0.20;0.20;;;;;;;21.35;64.23;95169.91;4374485;32;20192;-63
2023/09/20 11:34:10;;;;;;;0.93;0.87;;;;;;;21.43;63.81;95171.56;4369580;32;20185;-64
2023/09/20 11:36:40;;;;;;;0.20;0.20;;;;;;;21.52;63.28;95172.06;4360740;32;20278;-63
2023/09/20 11:39:06;;;;;;;0.40;0.40;;;;;;;21.56;63.54;95165.56;4369245;32;20197;-64
2023/09/20 11:41:32;;;;;;;0.40;0.40;;;;;;;21.47;65.14;95166.97;4361579;32;20251;-64
2023/09/20 11:43:59;;;;;;;0.33;0.33;;;;;;;21.38;64.48;95159.19;4362146;32;20212;-64
2023/09/20 11:46:37;;;;;;;0.30;0.30;;;;;;;21.54;62.47;95161.69;4364746;32;20227;-63
2023/09/20 11:49:04;;;;;;;0.40;0.40;;;;;;;21.58;62.76;95157.09;4373885;32;20215;-63
2023/09/20 11:51:32;;;;;;;0.70;0.30;;;;;;;21.66;61.80;95164.13;4363691;32;20199;-63
2023/09/20 11:53:59;;;;;;;1.80;0.73;;;;;;;21.58;63.11;95162.50;4361767;32;20242;-63
2023/09/20 11:56:30;;;;;;;1.20;0.53;;;;;;;21.42;63.85;95159.19;4361913;32;20185;-64
2023/09/20 11:58:59;;;;;;;0.63;0.63;;;;;;;21.37;65.59;95146.03;4363076;32;20189;-64
2023/09/20 12:01:29;;;;;;;0.40;0.40;;;;;;;21.26;65.61;95135.09;4363061;32;20184;-64
2023/09/20 12:03:58;;;;;;;0.37;0.37;;;;;;;21.41;64.28;95133.34;4373543;32;20189;-64
2023/09/20 12:06:24;;;;;;;0.10;0.10;;;;;;;21.43;64.08;95139.16;4363418;32;20250;-64
2023/09/20 12:08:54;;;;;;;0.30;0.30;;;;;;;21.67;61.65;95138.69;4361862;32;20203;-64
2023/09/20 12:11:20;;;;;;;0.60;0.53;;;;;;;21.65;62.11;95130.16;4360184;32;20189;-63
2023/09/20 12:13:46;;;;;;;0.30;0.30;;;;;;;21.62;62.58;95123.59;4365031;32;20189;-64
2023/09/20 12:16:13;;;;;;;0.33;0.33;;;;;;;21.73;63.00;95131.03;4363549;32;20193;-64
2023/09/20 12:18:38;;;;;;;0.30;0.30;;;;;;;21.84;62.92;95121.88;4361615;32;20185;-63
2023/09/20 12:21:04;;;;;;;0.10;0.10;;;;;;;22.06;62.49;95119.44;4361602;32;20246;-63